Time;durP1;ratioP1;P1;durP2;ratioP2;P2;SDS_P1;SDS_P2;PMS_P1;PMS_P2;Temp;Humidity;BMP_temperature;BMP_pressure;BME280_temperature;BME280_humidity;BME280_pressure;Samples;Min_cycle;Max_cycle;Signal;HPM_P1;HPM_P2
2021/04/05 00:00:20;;;;;;;6.22;3.70;;;4.00;99.90;;;;;;5063741;28;20054;-78
2021/04/05 00:02:45;;;;;;;6.37;3.30;;;4.00;99.90;;;;;;5061053;28;20021;-78
2021/04/05 00:05:21;;;;;;;6.57;3.60;;;3.90;99.90;;;;;;5061791;28;20477;-78
2021/04/05 00:07:49;;;;;;;6.53;3.17;;;3.90;99.90;;;;;;5065123;28;20094;-77
2021/04/05 00:10:29;;;;;;;7.87;3.37;;;4.00;99.90;;;;;;5066738;28;20036;-80
2021/04/05 00:12:56;;;;;;;9.23;3.67;;;4.00;99.90;;;;;;5056098;28;20033;-78
2021/04/05 00:15:22;;;;;;;7.85;3.72;;;4.00;99.90;;;;;;5065349;28;20139;-77
2021/04/05 00:17:48;;;;;;;5.22;3.08;;;4.00;99.90;;;;;;5064967;28;20028;-78
2021/04/05 00:20:22;;;;;;;6.53;3.55;;;3.90;99.90;;;;;;5066259;28;20028;-77
2021/04/05 00:23:07;;;;;;;8.93;3.22;;;4.00;99.90;;;;;;5056737;28;20370;-78
2021/04/05 00:25:33;;;;;;;8.38;3.00;;;3.90;99.90;;;;;;5034500;28;20103;-77
2021/04/05 00:28:01;;;;;;;4.27;2.70;;;3.90;99.90;;;;;;5040708;28;20049;-78
2021/04/05 00:30:37;;;;;;;5.95;2.92;;;3.90;99.90;;;;;;5038350;28;20095;-78
2021/04/05 00:33:04;;;;;;;6.47;3.70;;;3.80;99.90;;;;;;5037419;28;20049;-79
2021/04/05 00:35:35;;;;;;;6.83;3.30;;;3.80;99.90;;;;;;5039242;28;20349;-77
2021/04/05 00:38:04;;;;;;;8.17;3.80;;;3.80;99.90;;;;;;5031260;28;20148;-78
2021/04/05 00:40:35;;;;;;;5.68;3.28;;;3.80;99.90;;;;;;5036319;28;20215;-78
2021/04/05 00:43:07;;;;;;;6.27;3.03;;;3.70;99.90;;;;;;5039179;28;20038;-78
2021/04/05 00:45:34;;;;;;;7.18;3.30;;;3.80;99.90;;;;;;5029162;28;20041;-78
2021/04/05 00:48:00;;;;;;;6.87;3.17;;;3.80;99.90;;;;;;5042154;28;20029;-77
2021/04/05 00:50:34;;;;;;;6.43;3.35;;;3.80;99.90;;;;;;5039045;28;20048;-79
2021/04/05 00:53:05;;;;;;;6.57;3.13;;;3.80;99.90;;;;;;5036397;28;20812;-78
2021/04/05 00:55:31;;;;;;;5.38;2.90;;;3.80;99.90;;;;;;5035369;28;20029;-78
2021/04/05 00:57:57;;;;;;;7.27;3.30;;;3.80;99.90;;;;;;5060289;28;20048;-77
2021/04/05 01:00:35;;;;;;;7.07;3.20;;;3.80;99.90;;;;;;5054708;28;20403;-77
2021/04/05 01:03:02;;;;;;;8.93;3.10;;;3.70;99.90;;;;;;5056173;28;20063;-78
2021/04/05 01:05:29;;;;;;;7.00;3.37;;;3.70;99.90;;;;;;5059109;28;20549;-77
2021/04/05 01:07:56;;;;;;;7.22;3.10;;;3.80;99.90;;;;;;5057203;28;20238;-77
2021/04/05 01:10:22;;;;;;;5.50;3.17;;;3.70;99.90;;;;;;5058587;28;20196;-78
2021/04/05 01:12:48;;;;;;;6.80;3.05;;;3.70;99.90;;;;;;5060287;28;20032;-77
2021/04/05 01:15:15;;;;;;;6.73;2.90;;;3.70;99.90;;;;;;5053208;28;20051;-77
2021/04/05 01:17:40;;;;;;;6.13;2.80;;;3.70;99.90;;;;;;5055529;28;20037;-77
2021/04/05 01:20:09;;;;;;;6.47;2.83;;;3.70;99.90;;;;;;5060094;28;20036;-77
2021/04/05 01:22:36;;;;;;;9.70;3.08;;;3.70;99.90;;;;;;5067038;28;20086;-78
2021/04/05 01:25:08;;;;;;;8.20;2.73;;;3.70;99.90;;;;;;5065334;28;20484;-77
2021/04/05 01:27:34;;;;;;;5.50;2.72;;;3.70;99.90;;;;;;5061221;28;20033;-78
2021/04/05 01:29:59;;;;;;;5.55;3.40;;;3.60;99.90;;;;;;5055450;28;20044;-77
2021/04/05 01:32:25;;;;;;;5.93;2.77;;;3.60;99.90;;;;;;5058130;28;20037;-77
2021/04/05 01:34:51;;;;;;;6.45;3.70;;;3.60;99.90;;;;;;5057186;28;20041;-77
2021/04/05 01:37:18;;;;;;;8.03;2.90;;;3.60;99.90;;;;;;5053001;28;20718;-77
2021/04/05 01:39:43;;;;;;;7.30;3.03;;;3.60;99.90;;;;;;5053153;28;20041;-78
2021/04/05 01:42:09;;;;;;;6.25;2.92;;;3.60;99.90;;;;;;5061446;28;20032;-78
2021/04/05 01:44:37;;;;;;;8.30;3.13;;;3.50;99.90;;;;;;5058589;28;20032;-77
2021/04/05 01:47:03;;;;;;;9.47;3.37;;;3.50;99.90;;;;;;5059689;28;20143;-77
2021/04/05 01:49:28;;;;;;;6.27;3.20;;;3.50;99.90;;;;;;5061117;28;20031;-76
2021/04/05 01:51:55;;;;;;;6.57;3.10;;;3.50;99.90;;;;;;5051991;28;20037;-77
2021/04/05 01:54:22;;;;;;;5.73;2.90;;;3.50;99.90;;;;;;5065413;28;20174;-77
2021/04/05 01:56:48;;;;;;;7.10;3.03;;;3.50;99.90;;;;;;5058709;28;20396;-78
2021/04/05 01:59:14;;;;;;;4.93;2.77;;;3.50;99.90;;;;;;5062732;28;20056;-77
2021/04/05 02:01:40;;;;;;;5.03;2.70;;;3.50;99.90;;;;;;5063774;28;20028;-77
2021/04/05 02:04:06;;;;;;;5.93;2.93;;;3.50;99.90;;;;;;5056470;28;20805;-77
2021/04/05 02:06:35;;;;;;;6.03;2.90;;;3.40;99.90;;;;;;5056384;28;20499;-77
2021/04/05 02:09:03;;;;;;;6.87;2.93;;;3.40;99.90;;;;;;5059728;28;20542;-78
2021/04/05 02:11:34;;;;;;;5.27;2.90;;;3.40;99.90;;;;;;5068213;28;20295;-78
2021/04/05 02:14:00;;;;;;;6.30;3.10;;;3.40;99.90;;;;;;5061291;28;20036;-77
2021/04/05 02:16:27;;;;;;;5.97;2.70;;;3.40;99.90;;;;;;5066264;28;20024;-77
2021/04/05 02:18:54;;;;;;;6.30;3.33;;;3.30;99.90;;;;;;5063547;28;20472;-77
2021/04/05 02:21:22;;;;;;;4.53;2.97;;;3.30;99.90;;;;;;5055719;28;20029;-77
2021/04/05 02:23:52;;;;;;;6.40;3.03;;;3.30;99.90;;;;;;5066983;28;20077;-79
2021/04/05 02:26:21;;;;;;;5.50;2.97;;;3.30;99.90;;;;;;5071792;28;20033;-78
2021/04/05 02:28:48;;;;;;;5.20;2.83;;;3.30;99.90;;;;;;5074211;28;20025;-77
2021/04/05 02:31:20;;;;;;;6.13;2.80;;;3.30;99.90;;;;;;5061909;28;20024;-78
2021/04/05 02:33:49;;;;;;;7.20;2.70;;;3.20;99.90;;;;;;5061729;28;20017;-78
2021/04/05 02:36:17;;;;;;;5.85;3.25;;;3.20;99.90;;;;;;5057193;28;20555;-78
2021/04/05 02:38:48;;;;;;;5.00;2.97;;;3.30;99.90;;;;;;5055262;28;20088;-77
2021/04/05 02:41:16;;;;;;;5.20;2.90;;;3.30;99.90;;;;;;5061738;28;20024;-78
2021/04/05 02:43:42;;;;;;;5.83;3.20;;;3.20;99.90;;;;;;5066611;28;20044;-78
2021/04/05 02:46:13;;;;;;;5.67;2.60;;;3.20;99.90;;;;;;5067998;28;20476;-78
2021/04/05 02:48:46;;;;;;;6.17;3.33;;;3.20;99.90;;;;;;5061411;28;20040;-78
2021/04/05 02:51:12;;;;;;;7.97;2.93;;;3.20;99.90;;;;;;5061958;28;20119;-77
2021/04/05 02:53:42;;;;;;;7.10;2.53;;;3.20;99.90;;;;;;5067827;28;20033;-78
2021/04/05 02:56:09;;;;;;;4.67;3.20;;;3.20;99.90;;;;;;5065784;28;20115;-78
2021/04/05 02:58:40;;;;;;;5.73;2.43;;;3.10;99.90;;;;;;5063169;28;20068;-78
2021/04/05 03:01:08;;;;;;;6.87;2.70;;;3.20;99.90;;;;;;5063083;28;20125;-78
2021/04/05 03:03:39;;;;;;;7.40;2.87;;;3.20;99.90;;;;;;5068210;28;20067;-76
2021/04/05 03:06:06;;;;;;;6.10;2.73;;;3.10;99.90;;;;;;5068537;28;20059;-79
2021/04/05 03:08:33;;;;;;;4.43;2.70;;;3.10;99.90;;;;;;5052655;28;20025;-77
2021/04/05 03:10:59;;;;;;;6.90;2.70;;;3.10;99.90;;;;;;5059709;28;20025;-77
2021/04/05 03:13:26;;;;;;;5.50;2.40;;;3.00;99.90;;;;;;5058050;28;20361;-77
2021/04/05 03:15:55;;;;;;;7.23;2.73;;;3.00;99.90;;;;;;5055619;28;20031;-78
2021/04/05 03:18:22;;;;;;;6.93;2.83;;;2.90;99.90;;;;;;5054329;28;20036;-76
2021/04/05 03:20:48;;;;;;;7.40;3.30;;;3.00;99.90;;;;;;5061420;28;20017;-79
2021/04/05 03:23:15;;;;;;;4.10;2.80;;;2.90;99.90;;;;;;5058728;28;20040;-77
2021/04/05 03:25:42;;;;;;;6.83;2.80;;;2.90;99.90;;;;;;5058142;28;20097;-77
2021/04/05 03:28:08;;;;;;;6.40;2.87;;;3.00;99.90;;;;;;5062870;28;20091;-77
2021/04/05 03:30:50;;;;;;;6.00;2.80;;;3.00;99.90;;;;;;5056289;28;20388;-78
2021/04/05 03:33:27;;;;;;;6.50;2.80;;;3.00;99.90;;;;;;5061835;28;20082;-78
2021/04/05 03:35:58;;;;;;;9.03;2.73;;;2.90;99.90;;;;;;5073286;28;20117;-78
2021/04/05 03:38:24;;;;;;;6.73;3.07;;;3.00;99.90;;;;;;5069945;28;20029;-77
2021/04/05 03:40:50;;;;;;;5.97;2.97;;;3.00;99.90;;;;;;5060864;28;20040;-78
2021/04/05 03:43:27;;;;;;;7.60;2.77;;;2.90;99.90;;;;;;5063404;28;20037;-77
2021/04/05 03:45:57;;;;;;;5.23;2.70;;;2.90;99.90;;;;;;5064705;28;20047;-78
2021/04/05 03:48:42;;;;;;;;;;;2.90;99.90;;;;;;5063352;28;20036;-77
2021/04/05 03:51:21;;;;;;;5.13;2.73;;;3.00;99.90;;;;;;5072082;28;19944;-76
2021/04/05 03:53:55;;;;;;;5.50;3.00;;;2.90;99.90;;;;;;5056303;28;20033;-77
2021/04/05 03:56:25;;;;;;;5.60;2.60;;;3.00;99.90;;;;;;5066400;28;20115;-77
2021/04/05 03:58:55;;;;;;;5.70;2.80;;;2.90;99.90;;;;;;5074726;28;20478;-78
2021/04/05 04:01:24;;;;;;;9.55;2.90;;;3.00;99.90;;;;;;5061209;28;20028;-78
2021/04/05 04:04:01;;;;;;;4.70;2.47;;;3.00;99.90;;;;;;5062998;28;20044;-77
2021/04/05 04:09:16;;;;;;;4.23;2.53;;;3.00;99.90;;;;;;5068528;28;20166;-79
2021/04/05 04:11:44;;;;;;;5.15;2.72;;;3.00;99.90;;;;;;5059515;28;20396;-78
2021/04/05 04:14:13;;;;;;;5.40;2.80;;;3.00;99.90;;;;;;5056341;28;20416;-78
2021/04/05 04:16:40;;;;;;;5.60;2.63;;;3.10;99.90;;;;;;5057842;28;20055;-77
2021/04/05 04:19:07;;;;;;;5.63;2.23;;;3.20;99.90;;;;;;5059793;28;20095;-77
2021/04/05 04:21:33;;;;;;;5.07;2.20;;;3.20;99.90;;;;;;5058551;28;20028;-77
2021/04/05 04:24:00;;;;;;;6.03;2.87;;;3.20;99.90;;;;;;5062649;28;20037;-79
2021/04/05 04:26:26;;;;;;;6.53;2.43;;;3.20;99.90;;;;;;5061582;28;20058;-77
2021/04/05 04:28:51;;;;;;;4.93;2.37;;;3.20;99.90;;;;;;5054903;28;20112;-78
2021/04/05 04:31:20;;;;;;;5.13;2.40;;;3.20;99.90;;;;;;5065255;28;20531;-79
2021/04/05 04:33:48;;;;;;;5.50;2.28;;;3.10;99.90;;;;;;5064463;28;20115;-78
2021/04/05 04:36:20;;;;;;;6.83;2.87;;;3.10;99.90;;;;;;5065523;28;20389;-79
2021/04/05 04:38:46;;;;;;;5.30;2.70;;;3.10;99.90;;;;;;5060230;28;20617;-77
2021/04/05 04:41:18;;;;;;;5.87;2.20;;;3.10;99.90;;;;;;5068928;28;20025;-82
2021/04/05 04:43:44;;;;;;;4.67;2.33;;;3.10;99.90;;;;;;5065791;28;20029;-77
2021/04/05 04:46:11;;;;;;;5.00;2.43;;;3.10;99.90;;;;;;5058498;28;20401;-79
2021/04/05 04:48:36;;;;;;;6.50;2.60;;;3.10;99.90;;;;;;5060903;28;20503;-78
2021/04/05 04:51:02;;;;;;;4.77;2.70;;;3.10;99.90;;;;;;5065312;28;20063;-78
2021/04/05 04:53:28;;;;;;;4.20;2.20;;;3.20;99.90;;;;;;5054179;28;20575;-78
2021/04/05 04:55:53;;;;;;;5.03;2.30;;;3.20;99.90;;;;;;5059359;28;20082;-77
2021/04/05 04:58:19;;;;;;;5.33;2.80;;;3.30;99.90;;;;;;5063297;28;20037;-78
2021/04/05 05:00:45;;;;;;;4.17;2.40;;;3.30;99.90;;;;;;5057862;28;20025;-78
2021/04/05 05:03:11;;;;;;;4.50;2.27;;;3.40;99.90;;;;;;5061581;28;20036;-78
2021/04/05 05:05:38;;;;;;;4.30;2.40;;;3.40;99.90;;;;;;5060077;28;20456;-77
2021/04/05 05:08:05;;;;;;;5.03;2.30;;;3.50;99.90;;;;;;5054064;28;20040;-77
2021/04/05 05:10:31;;;;;;;6.03;2.30;;;3.60;99.90;;;;;;5055406;28;20032;-78
2021/04/05 05:12:57;;;;;;;5.40;2.50;;;3.60;99.90;;;;;;5058730;28;20380;-78
2021/04/05 05:15:23;;;;;;;5.47;2.80;;;3.70;99.90;;;;;;5060849;28;20075;-77
2021/04/05 05:17:49;;;;;;;4.32;2.30;;;3.70;99.90;;;;;;5067227;28;20025;-78
2021/04/05 05:20:16;;;;;;;4.30;2.10;;;3.80;99.90;;;;;;5061128;28;20095;-77
2021/04/05 05:22:46;;;;;;;5.20;2.27;;;3.90;99.90;;;;;;5047540;28;20021;-78
2021/04/05 05:25:16;;;;;;;5.53;2.50;;;3.90;99.90;;;;;;5060494;28;20043;-77
2021/04/05 05:27:46;;;;;;;3.63;2.30;;;4.00;99.90;;;;;;5057683;28;20021;-78
2021/04/05 05:30:20;;;;;;;4.38;2.20;;;4.10;99.90;;;;;;5057030;28;20029;-77
2021/04/05 05:32:47;;;;;;;3.85;2.25;;;4.20;99.90;;;;;;5056611;28;20526;-78
2021/04/05 05:35:13;;;;;;;6.13;2.30;;;4.30;99.90;;;;;;5062041;28;20364;-78
2021/04/05 05:37:39;;;;;;;5.45;2.40;;;4.60;99.90;;;;;;5064268;28;20033;-78
2021/04/05 05:40:06;;;;;;;7.20;2.28;;;4.90;99.90;;;;;;5069145;28;20044;-77
2021/04/05 05:43:06;;;;;;;3.97;2.15;;;5.20;99.90;;;;;;5065685;28;20036;-78
2021/04/05 05:46:02;;;;;;;4.20;2.20;;;5.20;99.90;;;;;;5069450;28;20025;-78
2021/04/05 05:48:43;;;;;;;5.07;2.08;;;5.20;99.90;;;;;;5018552;28;20041;-79
2021/04/05 05:51:23;;;;;;;3.67;2.10;;;5.30;99.90;;;;;;5010482;28;20065;-78
2021/04/05 05:53:48;;;;;;;;;;;5.50;99.90;;;;;;5020447;28;20168;-77
2021/04/05 05:56:48;;;;;;;4.38;2.15;;;5.90;99.90;;;;;;5017564;28;20404;-77
2021/04/05 05:59:22;;;;;;;;;;;6.30;99.90;;;;;;5019979;28;20044;-78
2021/04/05 06:02:11;;;;;;;5.85;2.55;;;6.20;99.90;;;;;;5017313;28;19979;-77
2021/04/05 06:04:48;;;;;;;5.00;2.27;;;6.10;99.90;;;;;;5022010;28;20213;-79
2021/04/05 06:07:32;;;;;;;4.97;2.58;;;6.00;99.90;;;;;;5011321;28;20038;-78
2021/04/05 06:10:18;;;;;;;4.75;2.45;;;5.90;99.90;;;;;;5022685;28;20030;-78
2021/04/05 06:12:52;;;;;;;6.05;2.88;;;6.10;99.90;;;;;;5027179;28;20041;-79
2021/04/05 06:15:19;;;;;;;4.93;2.55;;;6.20;99.90;;;;;;5025178;28;20091;-78
2021/04/05 06:18:06;;;;;;;4.00;2.38;;;6.50;99.90;;;;;;5024403;28;20076;-76
2021/04/05 06:20:48;;;;;;;6.38;2.60;;;7.10;99.90;;;;;;5020178;28;20540;-77
2021/04/05 06:23:23;;;;;;;7.85;2.50;;;7.60;99.90;;;;;;5007626;28;20029;-78
2021/04/05 06:26:06;;;;;;;4.00;2.60;;;7.90;99.90;;;;;;5050780;28;20127;-77
2021/04/05 06:28:49;;;;;;;4.00;2.05;;;8.30;99.90;;;;;;5063499;28;20100;-77
2021/04/05 06:31:54;;;;;;;5.50;2.53;;;8.40;99.90;;;;;;5063860;28;20029;-78
2021/04/05 06:34:34;;;;;;;3.95;2.13;;;8.40;99.90;;;;;;5041490;28;20063;-77
2021/04/05 06:37:36;;;;;;;5.65;2.50;;;7.80;99.90;;;;;;5041827;28;20045;-78
2021/04/05 06:40:07;;;;;;;7.15;2.53;;;7.60;99.90;;;;;;5041672;28;20049;-79
2021/04/05 06:42:51;;;;;;;6.00;2.88;;;7.70;99.90;;;;;;5043657;28;20053;-78
2021/04/05 06:45:38;;;;;;;4.13;2.40;;;7.80;99.90;;;;;;5045845;28;20436;-78
2021/04/05 06:48:34;;;;;;;5.78;2.28;;;7.90;99.90;;;;;;5044798;28;20048;-78
2021/04/05 06:51:29;;;;;;;8.10;2.78;;;8.10;99.90;;;;;;5041890;28;20037;-77
2021/04/05 06:54:23;;;;;;;7.65;2.90;;;8.30;99.90;;;;;;5012343;28;20117;-78
2021/04/05 06:57:11;;;;;;;5.25;2.60;;;8.50;99.90;;;;;;5007309;28;20026;-76
2021/04/05 07:00:13;;;;;;;5.75;2.60;;;8.70;99.90;;;;;;5006518;28;20056;-77
2021/04/05 07:03:10;;;;;;;5.40;2.30;;;8.70;99.90;;;;;;4966702;28;20042;-78
2021/04/05 07:06:17;;;;;;;6.10;1.90;;;8.80;99.90;;;;;;4963849;28;20056;-79
2021/04/05 07:09:01;;;;;;;5.40;2.10;;;8.90;99.50;;;;;;4963885;28;20558;-80
2021/04/05 07:11:39;;;;;;;5.47;2.97;;;8.90;99.70;;;;;;4965793;28;20496;-78
2021/04/05 07:14:25;;;;;;;11.15;2.42;;;9.00;99.60;;;;;;4965723;28;20042;-78
2021/04/05 07:17:13;;;;;;;7.18;2.40;;;9.10;98.80;;;;;;4961945;28;20046;-78
2021/04/05 07:20:00;;;;;;;9.82;2.45;;;9.20;98.70;;;;;;4962725;28;20086;-78
2021/04/05 07:22:28;;;;;;;7.38;2.85;;;9.40;98.60;;;;;;4969206;28;20062;-79
2021/04/05 07:25:09;;;;;;;5.07;2.78;;;9.60;98.30;;;;;;4968295;28;20034;-79
2021/04/05 07:27:56;;;;;;;5.88;2.50;;;9.70;98.30;;;;;;4968260;28;20495;-77
2021/04/05 07:30:32;;;;;;;6.90;2.40;;;9.80;98.30;;;;;;4987671;28;20049;-76
2021/04/05 07:33:37;;;;;;;4.57;2.63;;;9.70;98.00;;;;;;5006482;28;20030;-78
2021/04/05 07:36:25;;;;;;;7.82;2.85;;;9.70;97.80;;;;;;5004599;28;20026;-78
2021/04/05 07:39:23;;;;;;;7.03;1.83;;;9.70;97.80;;;;;;5015761;28;20114;-78
2021/04/05 07:42:00;;;;;;;4.85;1.95;;;9.70;97.20;;;;;;5068005;28;20114;-78
2021/04/05 07:44:58;;;;;;;5.60;2.47;;;9.80;97.20;;;;;;5063880;28;20025;-80
2021/04/05 07:47:42;;;;;;;10.23;2.90;;;9.80;96.90;;;;;;5060325;28;20025;-77
2021/04/05 07:50:31;;;;;;;6.82;2.45;;;9.90;96.80;;;;;;5055235;28;20052;-79
2021/04/05 07:53:07;;;;;;;3.80;2.35;;;10.00;96.60;;;;;;5061317;28;20057;-79
2021/04/05 07:55:33;;;;;;;5.75;3.13;;;10.10;96.70;;;;;;5057733;28;20050;-80
2021/04/05 07:58:23;;;;;;;5.15;2.45;;;10.20;96.70;;;;;;5053740;28;20095;-79
2021/04/05 08:01:17;;;;;;;6.32;2.88;;;10.30;96.40;;;;;;5064150;28;20079;-78
2021/04/05 08:03:55;;;;;;;6.85;2.80;;;10.60;96.40;;;;;;5055729;28;20081;-79
2021/04/05 08:06:31;;;;;;;2.15;1.27;;;10.60;96.40;;;;;;5064560;28;20040;-78
2021/04/05 08:09:04;;;;;;;3.47;1.75;;;10.50;95.70;;;;;;5067130;28;20591;-79
2021/04/05 08:11:55;;;;;;;5.20;1.80;;;10.60;95.50;;;;;;5069184;28;20169;-81
2021/04/05 08:14:38;;;;;;;4.97;2.35;;;10.60;95.60;;;;;;5050081;28;20032;-79
2021/04/05 08:17:23;;;;;;;4.53;2.50;;;10.60;95.60;;;;;;5055342;28;20068;-79
2021/04/05 08:20:24;;;;;;;6.07;2.35;;;10.80;95.60;;;;;;5049397;28;20040;-79
2021/04/05 08:23:06;;;;;;;4.25;2.17;;;11.00;95.50;;;;;;5065457;28;20029;-79
2021/04/05 08:26:13;;;;;;;5.28;2.30;;;11.30;95.40;;;;;;5059576;28;20024;-79
2021/04/05 08:28:48;;;;;;;17.02;2.70;;;11.40;95.30;;;;;;5059771;28;20028;-81
2021/04/05 08:31:49;;;;;;;4.97;2.13;;;11.50;95.20;;;;;;5060970;28;20021;-82
2021/04/05 08:34:45;;;;;;;5.05;2.08;;;11.60;94.90;;;;;;5051554;28;20040;-82
2021/04/05 08:37:43;;;;;;;5.38;2.92;;;11.40;94.70;;;;;;5051379;28;20048;-81
2021/04/05 08:40:20;;;;;;;6.00;2.35;;;11.50;94.80;;;;;;5059863;28;20068;-80
2021/04/05 08:43:04;;;;;;;6.38;2.42;;;11.30;94.50;;;;;;5065883;28;20056;-81
2021/04/05 08:45:46;;;;;;;6.32;2.47;;;11.50;94.30;;;;;;5056447;28;20708;-83
2021/04/05 08:48:20;;;;;;;8.25;2.47;;;11.50;94.30;;;;;;5059486;28;20064;-84
2021/04/05 08:50:58;;;;;;;4.80;2.10;;;11.50;93.90;;;;;;5048626;28;20052;-82
2021/04/05 08:53:24;;;;;;;6.22;2.17;;;11.70;93.90;;;;;;5067530;28;20025;-81
2021/04/05 08:55:52;;;;;;;6.85;2.53;;;12.00;94.00;;;;;;5067222;28;20024;-80
2021/04/05 08:58:28;;;;;;;7.38;2.80;;;12.00;93.90;;;;;;5058753;28;20063;-82
2021/04/05 09:00:58;;;;;;;8.48;2.40;;;12.20;93.90;;;;;;5060870;28;20021;-85
2021/04/05 09:03:29;;;;;;;5.65;2.13;;;12.40;93.70;;;;;;5064234;28;20044;-84
2021/04/05 09:05:55;;;;;;;5.05;2.25;;;12.40;93.20;;;;;;5078945;28;20043;-88
2021/04/05 09:08:24;;;;;;;6.47;2.28;;;12.50;92.70;;;;;;5066429;28;20036;-86
2021/04/05 09:10:55;;;;;;;6.00;2.30;;;12.20;92.60;;;;;;5055418;28;20051;-82
2021/04/05 09:13:25;;;;;;;5.85;2.05;;;12.40;92.80;;;;;;5049239;28;20066;-79
2021/04/05 09:16:48;;;;;;;4.00;1.98;;;12.50;92.70;;;;;;5064669;28;20431;-80
2021/04/05 09:19:32;;;;;;;4.28;1.90;;;12.60;92.30;;;;;;5064235;28;20067;-82
2021/04/05 09:22:06;;;;;;;4.55;1.77;;;12.60;92.50;;;;;;5062341;28;20075;-79
2021/04/05 09:24:50;;;;;;;7.45;2.45;;;12.60;92.40;;;;;;5060084;28;20031;-81
2021/04/05 09:27:53;;;;;;;1.90;1.17;;;12.70;92.50;;;;;;5080215;28;20025;-80
2021/04/05 09:30:52;;;;;;;6.00;2.08;;;12.90;92.40;;;;;;5058465;28;20025;-81
2021/04/05 09:33:29;;;;;;;6.63;1.40;;;13.10;92.20;;;;;;5055833;28;20025;-81
2021/04/05 09:36:14;;;;;;;9.23;2.65;;;12.80;92.10;;;;;;5053484;28;20073;-82
2021/04/05 09:39:01;;;;;;;3.17;1.25;;;12.90;92.00;;;;;;5063489;28;20095;-82
2021/04/05 09:42:05;;;;;;;3.35;1.60;;;12.90;92.00;;;;;;5056123;28;20151;-80
2021/04/05 09:45:10;;;;;;;6.13;1.90;;;12.90;92.30;;;;;;5059197;28;20073;-81
2021/04/05 09:48:05;;;;;;;3.45;1.77;;;13.10;92.30;;;;;;5026287;28;20033;-80
2021/04/05 09:51:06;;;;;;;4.00;1.70;;;13.10;92.00;;;;;;5014676;28;20045;-79
2021/04/05 09:53:38;;;;;;;7.15;1.90;;;13.30;92.00;;;;;;4970528;28;20046;-81
2021/04/05 09:56:08;;;;;;;9.35;2.05;;;13.50;91.60;;;;;;4986999;28;20379;-80
2021/04/05 09:58:35;;;;;;;;;;;13.60;91.30;;;;;;4986758;28;20358;-80
2021/04/05 10:01:04;;;;;;;5.13;1.63;;;13.30;91.30;;;;;;4986546;28;19913;-80
2021/04/05 10:03:40;;;;;;;2.13;1.30;;;13.00;91.50;;;;;;4985144;28;20038;-80
2021/04/05 10:06:07;;;;;;;7.50;1.85;;;13.10;91.50;;;;;;4985596;28;20043;-78
2021/04/05 10:08:36;;;;;;;4.15;1.52;;;12.90;91.50;;;;;;4986586;28;20034;-80
2021/04/05 10:11:04;;;;;;;4.63;1.90;;;12.90;91.10;;;;;;4989346;28;20061;-79
2021/04/05 10:13:32;;;;;;;7.05;1.88;;;12.90;91.50;;;;;;4969601;28;20486;-78
2021/04/05 10:15:58;;;;;;;4.10;1.70;;;12.90;91.00;;;;;;4967244;28;20046;-77
2021/04/05 10:18:25;;;;;;;6.30;2.25;;;12.80;91.00;;;;;;4987769;28;20098;-80
2021/04/05 10:20:54;;;;;;;5.40;2.22;;;12.80;91.00;;;;;;4989645;28;20046;-79
2021/04/05 10:23:25;;;;;;;5.22;1.80;;;13.00;91.20;;;;;;5009128;28;20038;-77
2021/04/05 10:25:57;;;;;;;2.08;1.17;;;13.10;90.80;;;;;;4989272;28;20038;-76
2021/04/05 10:28:23;;;;;;;10.32;1.70;;;13.10;90.70;;;;;;5009320;28;20034;-81
2021/04/05 10:30:59;;;;;;;3.72;1.88;;;13.20;90.40;;;;;;5031668;28;20041;-75
2021/04/05 10:33:32;;;;;;;2.72;1.40;;;13.10;90.30;;;;;;5065703;28;20864;-83
2021/04/05 10:36:03;;;;;;;6.20;1.95;;;12.90;90.20;;;;;;5061881;28;20047;-80
2021/04/05 10:38:30;;;;;;;5.78;1.60;;;13.00;90.30;;;;;;5078156;28;20502;-79
2021/04/05 10:40:56;;;;;;;3.22;1.65;;;12.90;90.40;;;;;;5059801;28;21826;-79
2021/04/05 10:43:27;;;;;;;3.90;1.73;;;13.10;90.20;;;;;;5065066;28;20021;-81
2021/04/05 10:45:57;;;;;;;4.60;2.08;;;12.90;90.30;;;;;;5056068;28;20065;-85
2021/04/05 10:48:43;;;;;;;5.05;1.90;;;13.00;90.40;;;;;;5062661;28;20082;-82
2021/04/05 10:51:19;;;;;;;4.75;1.17;;;13.10;90.30;;;;;;5059287;28;20090;-80
2021/04/05 10:53:48;;;;;;;3.55;1.23;;;13.10;90.30;;;;;;5056682;28;20397;-82
2021/04/05 10:56:15;;;;;;;4.55;1.85;;;13.10;90.40;;;;;;5067406;28;20033;-77
2021/04/05 10:59:03;;;;;;;4.50;1.58;;;13.20;90.60;;;;;;5063428;28;20111;-79
2021/04/05 11:01:40;;;;;;;5.00;1.60;;;13.00;90.20;;;;;;5064670;28;20021;-77
2021/04/05 11:04:07;;;;;;;5.03;1.60;;;12.90;90.40;;;;;;5062531;28;20485;-79
2021/04/05 11:06:34;;;;;;;7.45;1.83;;;13.00;90.50;;;;;;5064911;28;20024;-77
2021/04/05 11:09:05;;;;;;;14.93;2.00;;;13.10;90.50;;;;;;5065818;28;20129;-79
2021/04/05 11:11:31;;;;;;;5.03;1.67;;;12.90;90.30;;;;;;5060215;28;20028;-80
2021/04/05 11:14:04;;;;;;;9.50;1.92;;;12.90;90.50;;;;;;5061483;28;20128;-80
2021/04/05 11:16:31;;;;;;;4.63;1.55;;;12.90;90.20;;;;;;5061781;28;20074;-81
2021/04/05 11:19:01;;;;;;;3.28;1.23;;;12.90;90.30;;;;;;5064998;28;20127;-82
2021/04/05 11:21:43;;;;;;;2.10;1.45;;;12.80;89.70;;;;;;5060283;28;20374;-81
2021/04/05 11:24:12;;;;;;;6.05;1.83;;;12.90;90.40;;;;;;5064542;28;20043;-82
2021/04/05 11:26:41;;;;;;;5.78;1.85;;;12.90;89.10;;;;;;5060255;28;20032;-81
2021/04/05 11:29:10;;;;;;;5.43;1.70;;;13.00;89.20;;;;;;5062075;28;20179;-78
2021/04/05 11:31:44;;;;;;;5.80;1.90;;;12.90;89.10;;;;;;5064940;28;20070;-78
2021/04/05 11:34:10;;;;;;;8.00;1.58;;;12.90;88.90;;;;;;5063271;28;20032;-79
2021/04/05 11:37:07;;;;;;;6.85;1.58;;;12.80;88.30;;;;;;5054203;28;20029;-79
2021/04/05 11:39:37;;;;;;;7.32;2.38;;;12.90;89.10;;;;;;5065139;28;20053;-76
2021/04/05 11:42:04;;;;;;;4.30;1.98;;;12.90;89.00;;;;;;5057666;28;20025;-79
2021/04/05 11:45:02;;;;;;;4.80;1.67;;;13.00;89.70;;;;;;5059459;28;20394;-74
2021/04/05 11:47:34;;;;;;;3.30;1.88;;;13.10;89.80;;;;;;5046140;28;20068;-76
2021/04/05 11:50:00;;;;;;;3.40;1.80;;;13.60;89.30;;;;;;5030260;28;20083;-76
2021/04/05 11:52:31;;;;;;;6.03;2.22;;;13.80;88.40;;;;;;5043874;28;20508;-80
2021/04/05 11:55:04;;;;;;;4.35;2.00;;;13.90;87.90;;;;;;5023875;28;20484;-80
2021/04/05 11:57:36;;;;;;;9.95;1.92;;;14.10;88.00;;;;;;5031032;28;20125;-80
2021/04/05 12:00:14;;;;;;;9.60;2.00;;;14.20;86.90;;;;;;5030298;28;20439;-78
2021/04/05 12:03:01;;;;;;;11.07;1.90;;;14.20;85.70;;;;;;5047779;28;20064;-81
2021/04/05 12:05:41;;;;;;;10.50;2.10;;;14.30;84.40;;;;;;5047385;28;20072;-79
2021/04/05 12:08:47;;;;;;;35.47;3.78;;;14.30;84.20;;;;;;5043808;28;20036;-80
2021/04/05 12:11:14;;;;;;;3.55;1.65;;;14.10;83.60;;;;;;5042585;28;20037;-83
2021/04/05 12:14:08;;;;;;;9.45;2.00;;;13.80;84.20;;;;;;5046926;28;20036;-82
2021/04/05 12:16:34;;;;;;;12.55;2.10;;;13.90;83.90;;;;;;5050692;28;20044;-85
2021/04/05 12:19:01;;;;;;;11.32;2.15;;;14.00;83.20;;;;;;5048085;28;20044;-85
2021/04/05 12:21:29;;;;;;;10.00;2.38;;;14.10;83.70;;;;;;5068075;28;20319;-83
2021/04/05 12:24:01;;;;;;;7.88;2.15;;;14.10;83.60;;;;;;5056595;28;20045;-85
2021/04/05 12:26:29;;;;;;;11.85;2.33;;;14.20;83.60;;;;;;5065821;28;20028;-84
2021/04/05 12:29:02;;;;;;;10.15;2.15;;;14.10;84.10;;;;;;5063185;28;20609;-83
2021/04/05 12:31:29;;;;;;;7.97;2.20;;;14.10;83.00;;;;;;5069131;28;20408;-83
2021/04/05 12:33:58;;;;;;;10.93;2.30;;;14.00;83.70;;;;;;5069290;28;20058;-87
2021/04/05 12:36:32;;;;;;;5.20;1.67;;;14.20;83.80;;;;;;5070401;28;20036;-86
2021/04/05 12:39:00;;;;;;;7.03;1.58;;;14.10;82.50;;;;;;5065477;28;20757;-84
2021/04/05 12:41:42;;;;;;;7.40;1.60;;;14.30;81.00;;;;;;5064672;28;20208;-84
2021/04/05 12:44:17;;;;;;;9.52;1.70;;;14.60;81.90;;;;;;5068301;28;20028;-82
2021/04/05 12:46:50;;;;;;;15.43;2.60;;;14.70;80.80;;;;;;5064195;28;20092;-83
2021/04/05 12:49:20;;;;;;;7.55;1.45;;;15.00;81.00;;;;;;5070144;28;20035;-84
2021/04/05 12:51:52;;;;;;;6.03;1.75;;;14.70;80.60;;;;;;5063848;28;20035;-78
2021/04/05 12:54:22;;;;;;;3.40;1.30;;;14.80;81.00;;;;;;5064642;28;20495;-79
2021/04/05 12:56:49;;;;;;;;;;;14.80;80.20;;;;;;5066283;28;20496;-80
2021/04/05 12:59:21;;;;;;;4.82;1.48;;;14.60;80.20;;;;;;5067320;28;19920;-83
2021/04/05 13:01:53;;;;;;;3.17;1.25;;;14.80;80.60;;;;;;5068166;28;20120;-83
2021/04/05 13:04:20;;;;;;;5.32;1.30;;;14.70;79.50;;;;;;5063889;28;20049;-84
2021/04/05 13:06:58;;;;;;;9.18;1.88;;;14.60;79.40;;;;;;5066568;28;20111;-81
2021/04/05 13:09:37;;;;;;;8.48;1.90;;;14.50;79.00;;;;;;5062804;28;20025;-82
2021/04/05 13:12:22;;;;;;;3.75;1.30;;;14.80;80.00;;;;;;5064743;28;20035;-81
2021/04/05 13:14:54;;;;;;;3.05;1.10;;;15.00;78.60;;;;;;5069732;28;20064;-84
2021/04/05 13:17:22;;;;;;;8.40;1.52;;;15.10;77.40;;;;;;5058296;28;20079;-82
2021/04/05 13:19:55;;;;;;;8.48;1.85;;;15.00;77.40;;;;;;5057066;28;20037;-84
2021/04/05 13:22:25;;;;;;;3.53;1.27;;;14.90;76.30;;;;;;5063001;28;20119;-83
2021/04/05 13:24:59;;;;;;;3.00;1.20;;;14.60;76.20;;;;;;5052916;28;20036;-81
2021/04/05 13:27:26;;;;;;;7.00;1.52;;;14.60;76.70;;;;;;5060657;28;20412;-80
2021/04/05 13:29:53;;;;;;;8.35;2.03;;;14.80;77.70;;;;;;5072188;28;20519;-80
2021/04/05 13:32:25;;;;;;;3.08;1.38;;;14.20;77.50;;;;;;5065309;28;20032;-81